Plymouth, ME (04969)

11:02 PM EST on February 05, 2016 (GMT -0500)
APRSWXNET | | Change Station
CLOSE
Current Station
Personal Weather Station
Location: Plymouth, ME
Elevation: 316 ft
Nearby Weather Stations

Elev 316 ft 44.80 °N, 69.26 °W | Updated 25 minutes ago

Clear
Clear
19 °F
Feels Like 13 °F
N
4
Wind Variable Wind from NW
Gusts 8.0 mph

Today
High -- | Low -- °F
--% Chance of Precip.
Yesterday
High -- | Low -- °F
Precip. -- in
Pressure 30.10 in
Visibility 10.0 miles
Clouds Few 3000 ft
Windchill 13 °F
Dew Point 15 °F
Humidity 83%
Rainfall in
Snow Depth Not available.
6:51 AM 4:50 PM
Waning Crescent, 8% visible
METAR KBGR 060353Z 31013KT 10SM FEW030 M07/M10 A3009 RMK AO2 SLP191 T10671100 $
Pressure 30.10 in
Visibility 10.0 miles
Clouds Few 3000 ft
Windchill 13 °F
Dew Point 15 °F
Humidity 83%
Rainfall in
Snow Depth Not available.
6:51 AM 4:50 PM
Waning Crescent, 8% visible
METAR KBGR 060353Z 31013KT 10SM FEW030 M07/M10 A3009 RMK AO2 SLP191 T10671100 $

10-Day Weather Forecast

Almanac

Astronomy

Feb. 05, 2016 Rise Set
Actual Time
Civil Twilight
Nautical Twilight
Astronomical Twilight
Moon
Length of Visible Light
Length of Day
Tomorrow will be .
, % of the Moon is Illuminated

Today's Extremes

State Highs State Lows

Community

WunderPhotos

Upload Photos

1,890,916 photos uploaded!

WunderBlog® & News

Nearby

Air Quality

  Air Quality AQ Index Pollutant
Not available.

Snow Depth

Station Depth Elevation

Earthquake Activity

City Distance Mag. Time & Date
Minimum magnitude displayed is 2.5.

Coastal Water Temperatures

Place Temperature

Stations

Nearby Weather Stations

Station Location Temp. Windchill Dew Point Humidity Wind Precip. Elev Updated Type
                   

Watches & Warnings

There are currently no watches in effect.